sensor_id;sensor_type;location;lat;lon;timestamp;temperature;humidity
61641;HTU21D;62201;49.966;8.342;2023-02-28T00:00:29;0.72;63.54
61641;HTU21D;62201;49.966;8.342;2023-02-28T00:02:55;0.74;63.50
61641;HTU21D;62201;49.966;8.342;2023-02-28T00:05:22;0.79;63.38
61641;HTU21D;62201;49.966;8.342;2023-02-28T00:07:48;0.79;63.49
61641;HTU21D;62201;49.966;8.342;2023-02-28T00:10:17;0.80;63.44
61641;HTU21D;62201;49.966;8.342;2023-02-28T00:12:49;0.86;63.38
61641;HTU21D;62201;49.966;8.342;2023-02-28T00:15:15;0.87;63.33
61641;HTU21D;62201;49.966;8.342;2023-02-28T00:17:41;0.95;63.23
61641;HTU21D;62201;49.966;8.342;2023-02-28T00:20:07;0.97;63.19
61641;HTU21D;62201;49.966;8.342;2023-02-28T00:22:36;0.98;63.44
61641;HTU21D;62201;49.966;8.342;2023-02-28T00:25:01;1.03;63.20
61641;HTU21D;62201;49.966;8.342;2023-02-28T00:27:27;1.05;63.11
61641;HTU21D;62201;49.966;8.342;2023-02-28T00:29:52;1.08;63.13
61641;HTU21D;62201;49.966;8.342;2023-02-28T00:32:19;1.09;63.28
61641;HTU21D;62201;49.966;8.342;2023-02-28T00:34:45;1.11;63.55
61641;HTU21D;62201;49.966;8.342;2023-02-28T00:37:10;1.14;63.53
61641;HTU21D;62201;49.966;8.342;2023-02-28T00:39:39;1.14;63.60
61641;HTU21D;62201;49.966;8.342;2023-02-28T00:42:05;1.16;63.66
61641;HTU21D;62201;49.966;8.342;2023-02-28T00:44:31;1.13;63.73
61641;HTU21D;62201;49.966;8.342;2023-02-28T00:46:58;1.16;63.89
61641;HTU21D;62201;49.966;8.342;2023-02-28T00:49:24;1.19;63.85
61641;HTU21D;62201;49.966;8.342;2023-02-28T00:51:50;1.21;63.88
61641;HTU21D;62201;49.966;8.342;2023-02-28T00:54:16;1.21;64.01
61641;HTU21D;62201;49.966;8.342;2023-02-28T00:56:41;1.24;64.04
61641;HTU21D;62201;49.966;8.342;2023-02-28T00:59:07;1.24;64.24
61641;HTU21D;62201;49.966;8.342;2023-02-28T01:01:32;1.27;64.08
61641;HTU21D;62201;49.966;8.342;2023-02-28T01:03:58;1.22;64.29
61641;HTU21D;62201;49.966;8.342;2023-02-28T01:06:23;1.20;64.13
61641;HTU21D;62201;49.966;8.342;2023-02-28T01:08:48;1.13;64.72
61641;HTU21D;62201;49.966;8.342;2023-02-28T01:11:18;1.09;65.30
61641;HTU21D;62201;49.966;8.342;2023-02-28T01:13:45;1.01;65.40
61641;HTU21D;62201;49.966;8.342;2023-02-28T01:16:12;0.96;66.04
61641;HTU21D;62201;49.966;8.342;2023-02-28T01:18:38;0.92;66.40
61641;HTU21D;62201;49.966;8.342;2023-02-28T01:21:08;0.84;66.70
61641;HTU21D;62201;49.966;8.342;2023-02-28T01:23:34;0.83;67.02
61641;HTU21D;62201;49.966;8.342;2023-02-28T01:28:36;0.73;67.80
61641;HTU21D;62201;49.966;8.342;2023-02-28T01:31:01;0.66;68.40
61641;HTU21D;62201;49.966;8.342;2023-02-28T01:33:27;0.58;68.85
61641;HTU21D;62201;49.966;8.342;2023-02-28T01:36:15;0.46;69.81
61641;HTU21D;62201;49.966;8.342;2023-02-28T01:38:41;0.44;70.07
61641;HTU21D;62201;49.966;8.342;2023-02-28T01:41:07;0.36;70.26
61641;HTU21D;62201;49.966;8.342;2023-02-28T01:46:08;0.28;70.91
61641;HTU21D;62201;49.966;8.342;2023-02-28T01:48:38;0.22;71.79
61641;HTU21D;62201;49.966;8.342;2023-02-28T01:51:10;0.18;72.11
61641;HTU21D;62201;49.966;8.342;2023-02-28T01:53:45;0.12;72.12
61641;HTU21D;62201;49.966;8.342;2023-02-28T01:56:14;0.09;72.58
61641;HTU21D;62201;49.966;8.342;2023-02-28T01:58:46;0.01;73.11
61641;HTU21D;62201;49.966;8.342;2023-02-28T02:01:12;-0.01;72.95
61641;HTU21D;62201;49.966;8.342;2023-02-28T02:03:47;-0.06;73.62
61641;HTU21D;62201;49.966;8.342;2023-02-28T02:06:13;-0.12;74.15
61641;HTU21D;62201;49.966;8.342;2023-02-28T02:08:39;-0.12;74.25
61641;HTU21D;62201;49.966;8.342;2023-02-28T02:11:07;-0.17;74.70
61641;HTU21D;62201;49.966;8.342;2023-02-28T02:19:16;-0.29;75.28
61641;HTU21D;62201;49.966;8.342;2023-02-28T02:24:48;-0.37;76.51
61641;HTU21D;62201;49.966;8.342;2023-02-28T02:38:33;-0.40;77.72
61641;HTU21D;62201;49.966;8.342;2023-02-28T02:41:25;-0.39;78.37
61641;HTU21D;62201;49.966;8.342;2023-02-28T02:43:56;-0.37;77.59
61641;HTU21D;62201;49.966;8.342;2023-02-28T02:46:36;-0.41;77.87
61641;HTU21D;62201;49.966;8.342;2023-02-28T02:49:06;-0.47;78.73
61641;HTU21D;62201;49.966;8.342;2023-02-28T02:51:33;-0.49;78.79
61641;HTU21D;62201;49.966;8.342;2023-02-28T02:54:11;-0.55;78.97
61641;HTU21D;62201;49.966;8.342;2023-02-28T02:56:42;-0.59;79.85
61641;HTU21D;62201;49.966;8.342;2023-02-28T02:59:11;-0.58;79.55
61641;HTU21D;62201;49.966;8.342;2023-02-28T03:01:39;-0.58;80.73
61641;HTU21D;62201;49.966;8.342;2023-02-28T03:04:11;-0.58;80.33
61641;HTU21D;62201;49.966;8.342;2023-02-28T03:06:37;-0.65;80.17
61641;HTU21D;62201;49.966;8.342;2023-02-28T03:09:02;-0.65;81.59
61641;HTU21D;62201;49.966;8.342;2023-02-28T03:11:29;-0.67;80.90
61641;HTU21D;62201;49.966;8.342;2023-02-28T03:22:04;-0.74;81.02
61641;HTU21D;62201;49.966;8.342;2023-02-28T03:24:40;-0.74;81.35
61641;HTU21D;62201;49.966;8.342;2023-02-28T03:29:46;-0.75;80.80
61641;HTU21D;62201;49.966;8.342;2023-02-28T03:32:20;-0.75;80.72
61641;HTU21D;62201;49.966;8.342;2023-02-28T03:35:01;-0.73;80.65
61641;HTU21D;62201;49.966;8.342;2023-02-28T03:37:31;-0.74;80.52
61641;HTU21D;62201;49.966;8.342;2023-02-28T03:40:21;-0.72;80.54
61641;HTU21D;62201;49.966;8.342;2023-02-28T03:42:50;-0.76;80.38
61641;HTU21D;62201;49.966;8.342;2023-02-28T03:45:24;-0.77;80.66
61641;HTU21D;62201;49.966;8.342;2023-02-28T03:48:04;-0.80;80.59
61641;HTU21D;62201;49.966;8.342;2023-02-28T03:50:41;-0.76;80.44
61641;HTU21D;62201;49.966;8.342;2023-02-28T03:56:16;-0.76;80.14
61641;HTU21D;62201;49.966;8.342;2023-02-28T04:01:33;-0.77;80.27
61641;HTU21D;62201;49.966;8.342;2023-02-28T04:04:00;-0.77;80.17
61641;HTU21D;62201;49.966;8.342;2023-02-28T04:06:26;-0.82;80.24
61641;HTU21D;62201;49.966;8.342;2023-02-28T04:08:52;-0.83;80.34
61641;HTU21D;62201;49.966;8.342;2023-02-28T04:11:22;-0.88;80.72
61641;HTU21D;62201;49.966;8.342;2023-02-28T04:13:48;-0.94;80.78
61641;HTU21D;62201;49.966;8.342;2023-02-28T04:16:14;-0.94;80.62
61641;HTU21D;62201;49.966;8.342;2023-02-28T04:18:39;-0.89;80.69
61641;HTU21D;62201;49.966;8.342;2023-02-28T04:21:06;-0.88;80.54
61641;HTU21D;62201;49.966;8.342;2023-02-28T04:23:31;-0.86;80.29
61641;HTU21D;62201;49.966;8.342;2023-02-28T04:25:57;-0.89;80.52
61641;HTU21D;62201;49.966;8.342;2023-02-28T04:28:22;-0.94;80.78
61641;HTU21D;62201;49.966;8.342;2023-02-28T04:30:56;-0.90;80.56
61641;HTU21D;62201;49.966;8.342;2023-02-28T04:33:22;-0.89;80.62
61641;HTU21D;62201;49.966;8.342;2023-02-28T04:35:47;-0.90;80.70
61641;HTU21D;62201;49.966;8.342;2023-02-28T04:38:13;-0.88;80.72
61641;HTU21D;62201;49.966;8.342;2023-02-28T04:40:38;-0.89;80.56
61641;HTU21D;62201;49.966;8.342;2023-02-28T04:43:03;-0.91;80.56
61641;HTU21D;62201;49.966;8.342;2023-02-28T04:45:29;-0.95;80.73
61641;HTU21D;62201;49.966;8.342;2023-02-28T04:47:57;-0.96;80.58
61641;HTU21D;62201;49.966;8.342;2023-02-28T04:50:22;-0.98;80.56
61641;HTU21D;62201;49.966;8.342;2023-02-28T04:52:48;-0.98;80.36
61641;HTU21D;62201;49.966;8.342;2023-02-28T04:55:14;-0.94;80.30
61641;HTU21D;62201;49.966;8.342;2023-02-28T04:57:39;-0.93;80.02
61641;HTU21D;62201;49.966;8.342;2023-02-28T05:00:05;-0.94;80.07
61641;HTU21D;62201;49.966;8.342;2023-02-28T05:02:36;-0.94;79.85
61641;HTU21D;62201;49.966;8.342;2023-02-28T05:05:02;-0.94;79.92
61641;HTU21D;62201;49.966;8.342;2023-02-28T05:07:27;-0.93;79.76
61641;HTU21D;62201;49.966;8.342;2023-02-28T05:09:53;-0.94;79.61
61641;HTU21D;62201;49.966;8.342;2023-02-28T05:12:18;-0.91;79.59
61641;HTU21D;62201;49.966;8.342;2023-02-28T05:14:43;-0.90;79.52
61641;HTU21D;62201;49.966;8.342;2023-02-28T05:17:09;-0.88;79.35
61641;HTU21D;62201;49.966;8.342;2023-02-28T05:19:35;-0.88;79.35
61641;HTU21D;62201;49.966;8.342;2023-02-28T05:22:00;-0.87;79.14
61641;HTU21D;62201;49.966;8.342;2023-02-28T05:24:26;-0.83;78.91
61641;HTU21D;62201;49.966;8.342;2023-02-28T05:26:52;-0.84;78.88
61641;HTU21D;62201;49.966;8.342;2023-02-28T05:29:18;-0.89;78.95
61641;HTU21D;62201;49.966;8.342;2023-02-28T05:31:44;-0.87;78.86
61641;HTU21D;62201;49.966;8.342;2023-02-28T05:34:09;-0.84;78.67
61641;HTU21D;62201;49.966;8.342;2023-02-28T05:36:37;-0.86;78.70
61641;HTU21D;62201;49.966;8.342;2023-02-28T05:39:03;-0.88;78.66
61641;HTU21D;62201;49.966;8.342;2023-02-28T05:41:29;-0.89;78.59
61641;HTU21D;62201;49.966;8.342;2023-02-28T05:43:55;-0.93;78.71
61641;HTU21D;62201;49.966;8.342;2023-02-28T05:46:20;-0.94;78.67
61641;HTU21D;62201;49.966;8.342;2023-02-28T05:48:47;-0.97;78.69
61641;HTU21D;62201;49.966;8.342;2023-02-28T05:51:12;-0.99;78.72
61641;HTU21D;62201;49.966;8.342;2023-02-28T05:53:38;-1.03;78.72
61641;HTU21D;62201;49.966;8.342;2023-02-28T05:56:04;-1.05;78.68
61641;HTU21D;62201;49.966;8.342;2023-02-28T05:58:30;-1.08;78.75
61641;HTU21D;62201;49.966;8.342;2023-02-28T06:01:00;-1.06;78.50
61641;HTU21D;62201;49.966;8.342;2023-02-28T06:03:26;-1.06;78.43
61641;HTU21D;62201;49.966;8.342;2023-02-28T06:05:51;-0.96;79.72
61641;HTU21D;62201;49.966;8.342;2023-02-28T06:08:17;-0.84;78.88
61641;HTU21D;62201;49.966;8.342;2023-02-28T06:10:43;-0.96;78.34
61641;HTU21D;62201;49.966;8.342;2023-02-28T06:13:09;-1.02;78.39
61641;HTU21D;62201;49.966;8.342;2023-02-28T06:15:34;-1.08;78.40
61641;HTU21D;62201;49.966;8.342;2023-02-28T06:18:00;-1.08;78.36
61641;HTU21D;62201;49.966;8.342;2023-02-28T06:20:26;-1.09;78.21
61641;HTU21D;62201;49.966;8.342;2023-02-28T06:22:57;-1.11;78.31
61641;HTU21D;62201;49.966;8.342;2023-02-28T06:25:27;-1.13;78.33
61641;HTU21D;62201;49.966;8.342;2023-02-28T06:27:53;-1.13;78.47
61641;HTU21D;62201;49.966;8.342;2023-02-28T06:30:20;-1.11;78.14
61641;HTU21D;62201;49.966;8.342;2023-02-28T06:32:52;-1.05;77.80
61641;HTU21D;62201;49.966;8.342;2023-02-28T06:35:18;-1.03;77.69
61641;HTU21D;62201;49.966;8.342;2023-02-28T06:37:43;-1.01;77.61
61641;HTU21D;62201;49.966;8.342;2023-02-28T06:40:10;-0.97;77.43
61641;HTU21D;62201;49.966;8.342;2023-02-28T06:42:35;-0.93;77.38
61641;HTU21D;62201;49.966;8.342;2023-02-28T06:45:00;-0.88;77.05
61641;HTU21D;62201;49.966;8.342;2023-02-28T06:47:28;-0.83;76.98
61641;HTU21D;62201;49.966;8.342;2023-02-28T06:49:55;-0.81;76.93
61641;HTU21D;62201;49.966;8.342;2023-02-28T06:52:21;-0.76;76.73
61641;HTU21D;62201;49.966;8.342;2023-02-28T06:54:47;-0.71;76.37
61641;HTU21D;62201;49.966;8.342;2023-02-28T06:57:12;-0.69;76.36
61641;HTU21D;62201;49.966;8.342;2023-02-28T06:59:38;-0.64;77.02
61641;HTU21D;62201;49.966;8.342;2023-02-28T07:02:03;-0.52;75.66
61641;HTU21D;62201;49.966;8.342;2023-02-28T07:04:28;-0.43;75.07
61641;HTU21D;62201;49.966;8.342;2023-02-28T07:06:55;-0.39;74.80
61641;HTU21D;62201;49.966;8.342;2023-02-28T07:09:22;-0.32;74.44
61641;HTU21D;62201;49.966;8.342;2023-02-28T07:11:47;-0.29;74.31
61641;HTU21D;62201;49.966;8.342;2023-02-28T07:14:12;-0.23;73.57
61641;HTU21D;62201;49.966;8.342;2023-02-28T07:16:38;-0.19;73.52
61641;HTU21D;62201;49.966;8.342;2023-02-28T07:19:03;-0.12;73.29
61641;HTU21D;62201;49.966;8.342;2023-02-28T07:21:29;-0.07;72.75
61641;HTU21D;62201;49.966;8.342;2023-02-28T07:23:55;0.04;71.88
61641;HTU21D;62201;49.966;8.342;2023-02-28T07:26:21;0.13;71.65
61641;HTU21D;62201;49.966;8.342;2023-02-28T07:28:47;0.19;71.32
61641;HTU21D;62201;49.966;8.342;2023-02-28T07:31:14;0.28;70.70
61641;HTU21D;62201;49.966;8.342;2023-02-28T07:33:40;0.35;69.97
61641;HTU21D;62201;49.966;8.342;2023-02-28T07:36:08;0.43;69.56
61641;HTU21D;62201;49.966;8.342;2023-02-28T07:38:38;0.50;69.33
61641;HTU21D;62201;49.966;8.342;2023-02-28T07:41:04;0.59;68.52
61641;HTU21D;62201;49.966;8.342;2023-02-28T07:43:30;0.67;68.41
61641;HTU21D;62201;49.966;8.342;2023-02-28T07:46:04;0.77;68.32
61641;HTU21D;62201;49.966;8.342;2023-02-28T07:48:29;0.84;68.06
61641;HTU21D;62201;49.966;8.342;2023-02-28T07:50:56;0.93;67.49
61641;HTU21D;62201;49.966;8.342;2023-02-28T07:53:21;1.01;66.71
61641;HTU21D;62201;49.966;8.342;2023-02-28T07:55:47;1.09;65.88
61641;HTU21D;62201;49.966;8.342;2023-02-28T07:58:13;1.19;65.76
61641;HTU21D;62201;49.966;8.342;2023-02-28T08:00:38;1.27;65.49
61641;HTU21D;62201;49.966;8.342;2023-02-28T08:03:03;1.37;64.24
61641;HTU21D;62201;49.966;8.342;2023-02-28T08:05:29;1.45;63.03
61641;HTU21D;62201;49.966;8.342;2023-02-28T08:07:55;1.48;62.70
61641;HTU21D;62201;49.966;8.342;2023-02-28T08:10:20;1.54;62.36
61641;HTU21D;62201;49.966;8.342;2023-02-28T08:12:46;1.60;61.57
61641;HTU21D;62201;49.966;8.342;2023-02-28T08:15:11;1.65;61.92
61641;HTU21D;62201;49.966;8.342;2023-02-28T08:17:37;1.71;61.58
61641;HTU21D;62201;49.966;8.342;2023-02-28T08:20:03;1.81;61.27
61641;HTU21D;62201;49.966;8.342;2023-02-28T08:22:29;1.83;61.14
61641;HTU21D;62201;49.966;8.342;2023-02-28T08:24:54;1.79;60.95
61641;HTU21D;62201;49.966;8.342;2023-02-28T08:27:20;1.76;60.65
61641;HTU21D;62201;49.966;8.342;2023-02-28T08:29:45;1.71;60.91
61641;HTU21D;62201;49.966;8.342;2023-02-28T08:32:10;1.71;61.00
61641;HTU21D;62201;49.966;8.342;2023-02-28T08:34:39;1.73;61.07
61641;HTU21D;62201;49.966;8.342;2023-02-28T08:37:04;1.80;61.17
61641;HTU21D;62201;49.966;8.342;2023-02-28T08:39:29;1.84;60.81
61641;HTU21D;62201;49.966;8.342;2023-02-28T08:41:55;1.98;60.89
61641;HTU21D;62201;49.966;8.342;2023-02-28T08:44:20;2.12;60.74
61641;HTU21D;62201;49.966;8.342;2023-02-28T08:46:45;2.23;60.25
61641;HTU21D;62201;49.966;8.342;2023-02-28T08:49:11;2.32;58.70
61641;HTU21D;62201;49.966;8.342;2023-02-28T08:51:38;2.43;58.90
61641;HTU21D;62201;49.966;8.342;2023-02-28T08:54:04;2.59;58.26
61641;HTU21D;62201;49.966;8.342;2023-02-28T08:56:29;2.65;57.14
61641;HTU21D;62201;49.966;8.342;2023-02-28T08:58:56;2.83;55.56
61641;HTU21D;62201;49.966;8.342;2023-02-28T09:01:25;2.91;54.75
61641;HTU21D;62201;49.966;8.342;2023-02-28T09:03:52;3.02;54.52
61641;HTU21D;62201;49.966;8.342;2023-02-28T09:06:19;3.16;54.21
61641;HTU21D;62201;49.966;8.342;2023-02-28T09:08:45;3.39;54.22
61641;HTU21D;62201;49.966;8.342;2023-02-28T09:11:10;3.44;52.91
61641;HTU21D;62201;49.966;8.342;2023-02-28T09:13:36;3.53;52.75
61641;HTU21D;62201;49.966;8.342;2023-02-28T09:16:03;3.34;51.91
61641;HTU21D;62201;49.966;8.342;2023-02-28T09:18:30;3.25;52.14
61641;HTU21D;62201;49.966;8.342;2023-02-28T09:20:56;3.33;51.61
61641;HTU21D;62201;49.966;8.342;2023-02-28T09:23:23;3.44;51.49
61641;HTU21D;62201;49.966;8.342;2023-02-28T09:25:54;3.69;50.18
61641;HTU21D;62201;49.966;8.342;2023-02-28T09:28:20;3.82;49.19
61641;HTU21D;62201;49.966;8.342;2023-02-28T09:30:49;4.03;49.08
61641;HTU21D;62201;49.966;8.342;2023-02-28T09:33:16;4.18;48.38
61641;HTU21D;62201;49.966;8.342;2023-02-28T09:35:42;4.14;47.62
61641;HTU21D;62201;49.966;8.342;2023-02-28T09:38:08;4.27;47.70
61641;HTU21D;62201;49.966;8.342;2023-02-28T09:40:43;4.68;47.29
61641;HTU21D;62201;49.966;8.342;2023-02-28T09:43:13;5.13;45.59
61641;HTU21D;62201;49.966;8.342;2023-02-28T09:45:42;5.32;44.84
61641;HTU21D;62201;49.966;8.342;2023-02-28T09:48:15;5.50;44.09
61641;HTU21D;62201;49.966;8.342;2023-02-28T09:50:48;5.74;43.24
61641;HTU21D;62201;49.966;8.342;2023-02-28T09:53:31;5.94;42.91
61641;HTU21D;62201;49.966;8.342;2023-02-28T09:56:04;6.51;42.16
61641;HTU21D;62201;49.966;8.342;2023-02-28T09:58:53;6.55;41.66
61641;HTU21D;62201;49.966;8.342;2023-02-28T10:07:11;5.57;42.91
61641;HTU21D;62201;49.966;8.342;2023-02-28T10:09:43;5.54;42.97
61641;HTU21D;62201;49.966;8.342;2023-02-28T10:12:11;5.31;43.11
61641;HTU21D;62201;49.966;8.342;2023-02-28T10:14:38;5.54;43.16
61641;HTU21D;62201;49.966;8.342;2023-02-28T10:17:12;5.47;43.43
61641;HTU21D;62201;49.966;8.342;2023-02-28T10:19:59;5.06;44.09
61641;HTU21D;62201;49.966;8.342;2023-02-28T10:22:35;4.81;44.49
61641;HTU21D;62201;49.966;8.342;2023-02-28T10:25:15;4.73;45.22
61641;HTU21D;62201;49.966;8.342;2023-02-28T10:27:41;5.05;44.73
61641;HTU21D;62201;49.966;8.342;2023-02-28T10:30:10;4.90;44.92
61641;HTU21D;62201;49.966;8.342;2023-02-28T10:32:37;4.58;45.67
61641;HTU21D;62201;49.966;8.342;2023-02-28T10:37:41;4.14;46.37
61641;HTU21D;62201;49.966;8.342;2023-02-28T10:40:26;4.07;46.95
61641;HTU21D;62201;49.966;8.342;2023-02-28T10:43:03;3.94;47.12
61641;HTU21D;62201;49.966;8.342;2023-02-28T10:45:34;4.14;47.13
61641;HTU21D;62201;49.966;8.342;2023-02-28T10:48:05;4.46;46.68
61641;HTU21D;62201;49.966;8.342;2023-02-28T10:56:05;6.22;43.42
61641;HTU21D;62201;49.966;8.342;2023-02-28T10:58:46;6.22;42.03
61641;HTU21D;62201;49.966;8.342;2023-02-28T11:01:16;6.21;41.94
61641;HTU21D;62201;49.966;8.342;2023-02-28T11:03:41;6.11;41.29
61641;HTU21D;62201;49.966;8.342;2023-02-28T11:06:30;5.89;41.30
61641;HTU21D;62201;49.966;8.342;2023-02-28T11:08:58;5.65;40.61
61641;HTU21D;62201;49.966;8.342;2023-02-28T11:11:27;5.56;41.74
61641;HTU21D;62201;49.966;8.342;2023-02-28T11:13:55;5.63;41.13
61641;HTU21D;62201;49.966;8.342;2023-02-28T11:16:22;5.70;41.26
61641;HTU21D;62201;49.966;8.342;2023-02-28T11:18:57;6.10;40.21
61641;HTU21D;62201;49.966;8.342;2023-02-28T11:21:28;6.44;39.91
61641;HTU21D;62201;49.966;8.342;2023-02-28T11:24:21;6.96;38.49
61641;HTU21D;62201;49.966;8.342;2023-02-28T11:26:49;6.87;38.25
61641;HTU21D;62201;49.966;8.342;2023-02-28T11:29:25;6.99;38.58
61641;HTU21D;62201;49.966;8.342;2023-02-28T11:32:03;7.16;37.87
61641;HTU21D;62201;49.966;8.342;2023-02-28T11:34:29;6.85;37.33
61641;HTU21D;62201;49.966;8.342;2023-02-28T11:36:56;6.65;38.17
61641;HTU21D;62201;49.966;8.342;2023-02-28T11:39:23;6.64;38.56
61641;HTU21D;62201;49.966;8.342;2023-02-28T11:44:28;6.61;38.94
61641;HTU21D;62201;49.966;8.342;2023-02-28T11:46:59;7.13;37.92
61641;HTU21D;62201;49.966;8.342;2023-02-28T11:52:52;6.76;38.01
61641;HTU21D;62201;49.966;8.342;2023-02-28T11:55:42;6.94;38.44
61641;HTU21D;62201;49.966;8.342;2023-02-28T11:58:38;7.38;38.04
61641;HTU21D;62201;49.966;8.342;2023-02-28T12:09:09;7.34;37.25
61641;HTU21D;62201;49.966;8.342;2023-02-28T12:11:51;7.27;37.17
61641;HTU21D;62201;49.966;8.342;2023-02-28T12:17:50;7.00;37.70
61641;HTU21D;62201;49.966;8.342;2023-02-28T12:20:33;6.68;38.59
61641;HTU21D;62201;49.966;8.342;2023-02-28T12:23:21;6.80;38.43
61641;HTU21D;62201;49.966;8.342;2023-02-28T12:28:39;6.75;38.63
61641;HTU21D;62201;49.966;8.342;2023-02-28T12:31:34;6.71;38.39
61641;HTU21D;62201;49.966;8.342;2023-02-28T12:34:04;6.74;38.69
61641;HTU21D;62201;49.966;8.342;2023-02-28T12:36:32;6.95;38.23
61641;HTU21D;62201;49.966;8.342;2023-02-28T12:39:05;7.35;37.69
61641;HTU21D;62201;49.966;8.342;2023-02-28T12:41:41;6.95;37.95
61641;HTU21D;62201;49.966;8.342;2023-02-28T12:44:38;7.09;37.82
61641;HTU21D;62201;49.966;8.342;2023-02-28T12:47:15;6.87;38.75
61641;HTU21D;62201;49.966;8.342;2023-02-28T12:49:46;7.07;38.27
61641;HTU21D;62201;49.966;8.342;2023-02-28T12:52:14;7.07;38.49
61641;HTU21D;62201;49.966;8.342;2023-02-28T12:54:49;6.89;38.10
61641;HTU21D;62201;49.966;8.342;2023-02-28T12:57:28;6.79;38.49
61641;HTU21D;62201;49.966;8.342;2023-02-28T13:00:02;6.97;38.40
61641;HTU21D;62201;49.966;8.342;2023-02-28T13:02:42;6.88;38.57
61641;HTU21D;62201;49.966;8.342;2023-02-28T13:08:23;6.79;38.55
61641;HTU21D;62201;49.966;8.342;2023-02-28T13:10:52;7.02;38.78
61641;HTU21D;62201;49.966;8.342;2023-02-28T13:13:23;6.84;38.19
61641;HTU21D;62201;49.966;8.342;2023-02-28T13:16:03;6.93;38.20
61641;HTU21D;62201;49.966;8.342;2023-02-28T13:20:57;6.91;38.30
61641;HTU21D;62201;49.966;8.342;2023-02-28T13:26:12;6.85;38.29
61641;HTU21D;62201;49.966;8.342;2023-02-28T13:28:58;7.05;38.56
61641;HTU21D;62201;49.966;8.342;2023-02-28T13:31:23;7.37;37.76
61641;HTU21D;62201;49.966;8.342;2023-02-28T13:38:51;7.26;38.05
61641;HTU21D;62201;49.966;8.342;2023-02-28T13:44:10;7.33;37.18
61641;HTU21D;62201;49.966;8.342;2023-02-28T13:49:32;7.50;37.39
61641;HTU21D;62201;49.966;8.342;2023-02-28T13:54:50;7.42;37.85
61641;HTU21D;62201;49.966;8.342;2023-02-28T14:00:59;7.62;37.07
61641;HTU21D;62201;49.966;8.342;2023-02-28T14:06:30;8.06;36.37
61641;HTU21D;62201;49.966;8.342;2023-02-28T14:09:05;8.05;36.59
61641;HTU21D;62201;49.966;8.342;2023-02-28T14:11:36;8.21;36.12
61641;HTU21D;62201;49.966;8.342;2023-02-28T14:14:04;8.35;35.78
61641;HTU21D;62201;49.966;8.342;2023-02-28T14:16:41;8.29;35.30
61641;HTU21D;62201;49.966;8.342;2023-02-28T14:19:13;8.44;35.50
61641;HTU21D;62201;49.966;8.342;2023-02-28T14:21:50;8.56;35.23
61641;HTU21D;62201;49.966;8.342;2023-02-28T14:27:35;8.42;35.69
61641;HTU21D;62201;49.966;8.342;2023-02-28T14:30:29;8.61;35.56
61641;HTU21D;62201;49.966;8.342;2023-02-28T14:33:22;8.62;35.65
61641;HTU21D;62201;49.966;8.342;2023-02-28T14:38:41;8.79;35.46
61641;HTU21D;62201;49.966;8.342;2023-02-28T14:41:19;8.87;35.51
61641;HTU21D;62201;49.966;8.342;2023-02-28T14:43:58;8.88;35.08
61641;HTU21D;62201;49.966;8.342;2023-02-28T14:46:36;9.10;35.16
61641;HTU21D;62201;49.966;8.342;2023-02-28T14:49:04;9.08;34.93
61641;HTU21D;62201;49.966;8.342;2023-02-28T14:51:30;8.95;34.90
61641;HTU21D;62201;49.966;8.342;2023-02-28T14:53:58;8.75;35.44
61641;HTU21D;62201;49.966;8.342;2023-02-28T14:56:48;8.72;35.69
61641;HTU21D;62201;49.966;8.342;2023-02-28T14:59:26;9.00;34.94
61641;HTU21D;62201;49.966;8.342;2023-02-28T15:02:14;9.31;34.57
61641;HTU21D;62201;49.966;8.342;2023-02-28T15:04:39;9.03;34.92
61641;HTU21D;62201;49.966;8.342;2023-02-28T15:07:16;9.02;35.11
61641;HTU21D;62201;49.966;8.342;2023-02-28T15:09:42;9.25;34.24
61641;HTU21D;62201;49.966;8.342;2023-02-28T15:12:07;9.62;35.72
61641;HTU21D;62201;49.966;8.342;2023-02-28T15:14:37;9.72;35.10
61641;HTU21D;62201;49.966;8.342;2023-02-28T15:17:14;9.14;34.96
61641;HTU21D;62201;49.966;8.342;2023-02-28T15:19:48;9.24;35.03
61641;HTU21D;62201;49.966;8.342;2023-02-28T15:22:17;9.18;35.44
61641;HTU21D;62201;49.966;8.342;2023-02-28T15:24:46;8.92;35.02
61641;HTU21D;62201;49.966;8.342;2023-02-28T15:27:18;8.55;36.14
61641;HTU21D;62201;49.966;8.342;2023-02-28T15:29:48;8.86;35.62
61641;HTU21D;62201;49.966;8.342;2023-02-28T15:32:34;9.07;34.96
61641;HTU21D;62201;49.966;8.342;2023-02-28T15:40:38;9.86;34.14
61641;HTU21D;62201;49.966;8.342;2023-02-28T15:43:17;9.70;35.32
61641;HTU21D;62201;49.966;8.342;2023-02-28T15:45:50;9.72;34.60
61641;HTU21D;62201;49.966;8.342;2023-02-28T15:50:44;9.34;35.35
61641;HTU21D;62201;49.966;8.342;2023-02-28T15:53:15;8.76;36.25
61641;HTU21D;62201;49.966;8.342;2023-02-28T15:55:41;8.81;36.40
61641;HTU21D;62201;49.966;8.342;2023-02-28T15:58:09;8.74;36.50
61641;HTU21D;62201;49.966;8.342;2023-02-28T16:00:38;8.76;36.65
61641;HTU21D;62201;49.966;8.342;2023-02-28T16:03:27;8.98;36.43
61641;HTU21D;62201;49.966;8.342;2023-02-28T16:06:20;8.77;36.72
61641;HTU21D;62201;49.966;8.342;2023-02-28T16:08:48;9.04;36.79
61641;HTU21D;62201;49.966;8.342;2023-02-28T16:11:16;8.79;37.27
61641;HTU21D;62201;49.966;8.342;2023-02-28T16:13:42;8.47;37.46
61641;HTU21D;62201;49.966;8.342;2023-02-28T16:16:07;8.11;38.25
61641;HTU21D;62201;49.966;8.342;2023-02-28T16:18:33;8.19;38.30
61641;HTU21D;62201;49.966;8.342;2023-02-28T16:20:58;8.16;38.27
61641;HTU21D;62201;49.966;8.342;2023-02-28T16:23:24;8.16;38.36
61641;HTU21D;62201;49.966;8.342;2023-02-28T16:25:49;8.17;38.45
61641;HTU21D;62201;49.966;8.342;2023-02-28T16:28:25;7.89;39.01
61641;HTU21D;62201;49.966;8.342;2023-02-28T16:30:52;7.62;39.51
61641;HTU21D;62201;49.966;8.342;2023-02-28T16:33:17;7.26;40.18
61641;HTU21D;62201;49.966;8.342;2023-02-28T16:35:43;6.75;41.37
61641;HTU21D;62201;49.966;8.342;2023-02-28T16:40:35;5.95;43.48
61641;HTU21D;62201;49.966;8.342;2023-02-28T16:43:05;5.72;44.05
61641;HTU21D;62201;49.966;8.342;2023-02-28T16:45:32;5.51;44.64
61641;HTU21D;62201;49.966;8.342;2023-02-28T16:48:01;5.35;45.41
61641;HTU21D;62201;49.966;8.342;2023-02-28T16:50:30;5.23;45.48
61641;HTU21D;62201;49.966;8.342;2023-02-28T16:53:04;5.11;46.14
61641;HTU21D;62201;49.966;8.342;2023-02-28T16:55:29;4.98;46.73
61641;HTU21D;62201;49.966;8.342;2023-02-28T16:57:59;4.87;46.94
61641;HTU21D;62201;49.966;8.342;2023-02-28T17:00:29;4.76;47.78
61641;HTU21D;62201;49.966;8.342;2023-02-28T17:02:55;4.65;48.58
61641;HTU21D;62201;49.966;8.342;2023-02-28T17:05:25;4.56;49.03
61641;HTU21D;62201;49.966;8.342;2023-02-28T17:08:00;4.47;49.17
61641;HTU21D;62201;49.966;8.342;2023-02-28T17:10:28;4.39;49.28
61641;HTU21D;62201;49.966;8.342;2023-02-28T17:12:54;4.33;49.05
61641;HTU21D;62201;49.966;8.342;2023-02-28T17:15:19;4.27;49.60
61641;HTU21D;62201;49.966;8.342;2023-02-28T17:17:46;4.18;50.15
61641;HTU21D;62201;49.966;8.342;2023-02-28T17:20:15;4.13;50.78
61641;HTU21D;62201;49.966;8.342;2023-02-28T17:22:41;4.06;50.56
61641;HTU21D;62201;49.966;8.342;2023-02-28T17:25:08;4.01;50.52
61641;HTU21D;62201;49.966;8.342;2023-02-28T17:27:33;3.94;51.12
61641;HTU21D;62201;49.966;8.342;2023-02-28T17:29:59;3.90;51.79
61641;HTU21D;62201;49.966;8.342;2023-02-28T17:32:25;3.85;51.27
61641;HTU21D;62201;49.966;8.342;2023-02-28T17:34:51;3.78;51.95
61641;HTU21D;62201;49.966;8.342;2023-02-28T17:37:16;3.75;51.63
61641;HTU21D;62201;49.966;8.342;2023-02-28T17:39:41;3.71;52.22
61641;HTU21D;62201;49.966;8.342;2023-02-28T17:42:07;3.69;52.22